sensor_id;sensor_type;location;lat;lon;timestamp;temperature;humidity
9800;DHT22;4939;52.00085300;4.17406100;2023-01-15T00:03:47;8.70;99.90
9800;DHT22;4939;52.00085300;4.17406100;2023-01-15T00:06:15;8.70;99.90
9800;DHT22;4939;52.00085300;4.17406100;2023-01-15T00:08:41;8.70;99.90
9800;DHT22;4939;52.00085300;4.17406100;2023-01-15T00:11:07;8.70;99.90
9800;DHT22;4939;52.00085300;4.17406100;2023-01-15T00:13:33;8.60;99.90
9800;DHT22;4939;52.00085300;4.17406100;2023-01-15T00:16:04;8.60;99.90
9800;DHT22;4939;52.00085300;4.17406100;2023-01-15T00:18:30;8.60;99.90
9800;DHT22;4939;52.00085300;4.17406100;2023-01-15T00:21:04;8.60;99.90
9800;DHT22;4939;52.00085300;4.17406100;2023-01-15T00:23:30;7.10;99.90
9800;DHT22;4939;52.00085300;4.17406100;2023-01-15T00:26:20;8.60;99.90
9800;DHT22;4939;52.00085300;4.17406100;2023-01-15T00:29:05;8.60;99.90
9800;DHT22;4939;52.00085300;4.17406100;2023-01-15T00:31:32;8.50;99.90
9800;DHT22;4939;52.00085300;4.17406100;2023-01-15T00:34:00;8.50;99.90
9800;DHT22;4939;52.00085300;4.17406100;2023-01-15T00:36:26;8.50;99.90
9800;DHT22;4939;52.00085300;4.17406100;2023-01-15T00:38:52;8.50;99.90
9800;DHT22;4939;52.00085300;4.17406100;2023-01-15T00:41:18;8.40;99.90
9800;DHT22;4939;52.00085300;4.17406100;2023-01-15T00:43:43;8.40;99.90
9800;DHT22;4939;52.00085300;4.17406100;2023-01-15T00:46:09;8.40;99.90
9800;DHT22;4939;52.00085300;4.17406100;2023-01-15T00:48:35;8.40;99.90
9800;DHT22;4939;52.00085300;4.17406100;2023-01-15T00:51:02;8.40;99.90
9800;DHT22;4939;52.00085300;4.17406100;2023-01-15T00:53:29;8.40;99.90
9800;DHT22;4939;52.00085300;4.17406100;2023-01-15T00:55:54;8.50;99.90
9800;DHT22;4939;52.00085300;4.17406100;2023-01-15T00:58:21;8.50;99.90
9800;DHT22;4939;52.00085300;4.17406100;2023-01-15T01:00:51;8.50;99.90
9800;DHT22;4939;52.00085300;4.17406100;2023-01-15T01:03:16;8.50;99.90
9800;DHT22;4939;52.00085300;4.17406100;2023-01-15T01:05:42;8.50;99.90
9800;DHT22;4939;52.00085300;4.17406100;2023-01-15T01:08:08;8.50;99.90
9800;DHT22;4939;52.00085300;4.17406100;2023-01-15T01:10:33;8.50;99.90
9800;DHT22;4939;52.00085300;4.17406100;2023-01-15T01:13:01;8.50;99.90
9800;DHT22;4939;52.00085300;4.17406100;2023-01-15T01:15:26;9.40;99.90
9800;DHT22;4939;52.00085300;4.17406100;2023-01-15T01:17:52;8.50;99.90
9800;DHT22;4939;52.00085300;4.17406100;2023-01-15T01:20:18;8.50;99.90
9800;DHT22;4939;52.00085300;4.17406100;2023-01-15T01:22:47;8.50;99.90
9800;DHT22;4939;52.00085300;4.17406100;2023-01-15T01:25:13;8.50;99.90
9800;DHT22;4939;52.00085300;4.17406100;2023-01-15T01:27:39;8.50;99.90
9800;DHT22;4939;52.00085300;4.17406100;2023-01-15T01:30:05;8.60;99.90
9800;DHT22;4939;52.00085300;4.17406100;2023-01-15T01:32:31;8.60;99.90
9800;DHT22;4939;52.00085300;4.17406100;2023-01-15T01:34:57;8.60;99.90
9800;DHT22;4939;52.00085300;4.17406100;2023-01-15T01:37:23;8.60;99.90
9800;DHT22;4939;52.00085300;4.17406100;2023-01-15T01:39:48;8.50;99.90
9800;DHT22;4939;52.00085300;4.17406100;2023-01-15T01:42:16;8.50;99.90
9800;DHT22;4939;52.00085300;4.17406100;2023-01-15T01:47:19;8.50;99.90
9800;DHT22;4939;52.00085300;4.17406100;2023-01-15T01:49:53;8.50;99.90
9800;DHT22;4939;52.00085300;4.17406100;2023-01-15T01:52:26;8.50;99.90
9800;DHT22;4939;52.00085300;4.17406100;2023-01-15T01:54:54;8.40;99.90
9800;DHT22;4939;52.00085300;4.17406100;2023-01-15T01:57:22;8.50;99.90
9800;DHT22;4939;52.00085300;4.17406100;2023-01-15T01:59:50;8.50;99.90
9800;DHT22;4939;52.00085300;4.17406100;2023-01-15T02:02:19;8.40;99.90
9800;DHT22;4939;52.00085300;4.17406100;2023-01-15T02:04:45;8.50;99.90
9800;DHT22;4939;52.00085300;4.17406100;2023-01-15T02:07:11;8.50;99.90
9800;DHT22;4939;52.00085300;4.17406100;2023-01-15T02:09:38;8.50;99.90
9800;DHT22;4939;52.00085300;4.17406100;2023-01-15T02:12:18;8.40;99.90
9800;DHT22;4939;52.00085300;4.17406100;2023-01-15T02:15:14;8.40;99.90
9800;DHT22;4939;52.00085300;4.17406100;2023-01-15T02:17:51;8.40;99.90
9800;DHT22;4939;52.00085300;4.17406100;2023-01-15T02:20:29;8.40;99.90
9800;DHT22;4939;52.00085300;4.17406100;2023-01-15T02:28:33;8.20;99.90
9800;DHT22;4939;52.00085300;4.17406100;2023-01-15T02:34:05;8.20;99.90
9800;DHT22;4939;52.00085300;4.17406100;2023-01-15T02:36:37;8.20;99.90
9800;DHT22;4939;52.00085300;4.17406100;2023-01-15T02:39:07;8.20;99.90
9800;DHT22;4939;52.00085300;4.17406100;2023-01-15T02:41:45;8.30;99.90
9800;DHT22;4939;52.00085300;4.17406100;2023-01-15T02:44:15;8.30;99.90
9800;DHT22;4939;52.00085300;4.17406100;2023-01-15T02:46:44;8.30;99.90
9800;DHT22;4939;52.00085300;4.17406100;2023-01-15T02:49:13;8.30;99.90
9800;DHT22;4939;52.00085300;4.17406100;2023-01-15T02:51:49;8.30;99.90
9800;DHT22;4939;52.00085300;4.17406100;2023-01-15T02:54:17;8.30;99.90
9800;DHT22;4939;52.00085300;4.17406100;2023-01-15T02:56:47;9.60;99.90
9800;DHT22;4939;52.00085300;4.17406100;2023-01-15T02:59:21;8.30;99.90
9800;DHT22;4939;52.00085300;4.17406100;2023-01-15T03:01:52;8.30;99.90
9800;DHT22;4939;52.00085300;4.17406100;2023-01-15T03:09:46;8.20;99.90
9800;DHT22;4939;52.00085300;4.17406100;2023-01-15T03:17:27;8.10;99.90
9800;DHT22;4939;52.00085300;4.17406100;2023-01-15T03:20:18;8.10;99.90
9800;DHT22;4939;52.00085300;4.17406100;2023-01-15T03:22:49;8.10;99.90
9800;DHT22;4939;52.00085300;4.17406100;2023-01-15T03:25:20;8.30;99.90
9800;DHT22;4939;52.00085300;4.17406100;2023-01-15T03:27:46;8.30;99.90
9800;DHT22;4939;52.00085300;4.17406100;2023-01-15T03:30:18;8.20;99.90
9800;DHT22;4939;52.00085300;4.17406100;2023-01-15T03:32:44;8.20;99.90
9800;DHT22;4939;52.00085300;4.17406100;2023-01-15T03:38:17;8.20;99.90
9800;DHT22;4939;52.00085300;4.17406100;2023-01-15T03:46:53;8.10;99.90
9800;DHT22;4939;52.00085300;4.17406100;2023-01-15T03:49:39;8.10;99.90
9800;DHT22;4939;52.00085300;4.17406100;2023-01-15T03:52:19;8.10;99.90
9800;DHT22;4939;52.00085300;4.17406100;2023-01-15T03:55:25;8.20;99.90
9800;DHT22;4939;52.00085300;4.17406100;2023-01-15T03:58:12;8.20;99.90
9800;DHT22;4939;52.00085300;4.17406100;2023-01-15T04:00:43;8.10;99.90
9800;DHT22;4939;52.00085300;4.17406100;2023-01-15T04:03:12;8.10;99.90
9800;DHT22;4939;52.00085300;4.17406100;2023-01-15T04:05:39;8.10;99.90
9800;DHT22;4939;52.00085300;4.17406100;2023-01-15T04:08:06;8.10;99.90
9800;DHT22;4939;52.00085300;4.17406100;2023-01-15T04:10:33;8.20;99.90
9800;DHT22;4939;52.00085300;4.17406100;2023-01-15T04:12:58;8.20;99.90
9800;DHT22;4939;52.00085300;4.17406100;2023-01-15T04:15:24;8.20;99.90
9800;DHT22;4939;52.00085300;4.17406100;2023-01-15T04:17:50;8.60;99.90
9800;DHT22;4939;52.00085300;4.17406100;2023-01-15T04:20:16;8.20;99.90
9800;DHT22;4939;52.00085300;4.17406100;2023-01-15T04:22:42;8.20;99.90
9800;DHT22;4939;52.00085300;4.17406100;2023-01-15T04:25:08;8.10;99.90
9800;DHT22;4939;52.00085300;4.17406100;2023-01-15T04:27:35;8.10;99.90
9800;DHT22;4939;52.00085300;4.17406100;2023-01-15T04:30:01;8.10;99.90
9800;DHT22;4939;52.00085300;4.17406100;2023-01-15T04:32:26;8.10;99.90
9800;DHT22;4939;52.00085300;4.17406100;2023-01-15T04:34:52;8.10;99.90
9800;DHT22;4939;52.00085300;4.17406100;2023-01-15T04:37:19;8.10;99.90
9800;DHT22;4939;52.00085300;4.17406100;2023-01-15T04:39:46;8.10;99.90
9800;DHT22;4939;52.00085300;4.17406100;2023-01-15T04:42:13;8.10;99.90
9800;DHT22;4939;52.00085300;4.17406100;2023-01-15T04:44:57;8.10;99.90
9800;DHT22;4939;52.00085300;4.17406100;2023-01-15T04:47:23;8.00;99.90
9800;DHT22;4939;52.00085300;4.17406100;2023-01-15T04:49:49;8.00;99.90
9800;DHT22;4939;52.00085300;4.17406100;2023-01-15T04:52:15;8.00;99.90
9800;DHT22;4939;52.00085300;4.17406100;2023-01-15T04:54:41;8.00;99.90
9800;DHT22;4939;52.00085300;4.17406100;2023-01-15T04:57:07;8.00;99.90
9800;DHT22;4939;52.00085300;4.17406100;2023-01-15T04:59:32;8.00;99.90
9800;DHT22;4939;52.00085300;4.17406100;2023-01-15T05:01:58;7.90;99.90
9800;DHT22;4939;52.00085300;4.17406100;2023-01-15T05:04:24;7.90;99.90
9800;DHT22;4939;52.00085300;4.17406100;2023-01-15T05:06:50;7.90;99.90
9800;DHT22;4939;52.00085300;4.17406100;2023-01-15T05:09:17;7.90;99.90
9800;DHT22;4939;52.00085300;4.17406100;2023-01-15T05:11:45;7.80;99.90
9800;DHT22;4939;52.00085300;4.17406100;2023-01-15T05:14:10;7.80;99.90
9800;DHT22;4939;52.00085300;4.17406100;2023-01-15T05:16:36;7.80;99.90
9800;DHT22;4939;52.00085300;4.17406100;2023-01-15T05:19:04;7.70;99.90
9800;DHT22;4939;52.00085300;4.17406100;2023-01-15T05:21:34;7.70;99.90
9800;DHT22;4939;52.00085300;4.17406100;2023-01-15T05:24:02;7.80;99.90
9800;DHT22;4939;52.00085300;4.17406100;2023-01-15T05:26:30;7.80;99.90
9800;DHT22;4939;52.00085300;4.17406100;2023-01-15T05:28:57;8.00;99.90
9800;DHT22;4939;52.00085300;4.17406100;2023-01-15T05:31:25;7.80;99.90
9800;DHT22;4939;52.00085300;4.17406100;2023-01-15T05:33:52;7.70;99.90
9800;DHT22;4939;52.00085300;4.17406100;2023-01-15T05:36:20;7.70;99.90
9800;DHT22;4939;52.00085300;4.17406100;2023-01-15T05:38:46;7.70;99.90
9800;DHT22;4939;52.00085300;4.17406100;2023-01-15T05:41:15;7.60;99.90
9800;DHT22;4939;52.00085300;4.17406100;2023-01-15T05:44:02;7.60;99.90
9800;DHT22;4939;52.00085300;4.17406100;2023-01-15T05:46:29;7.60;99.90
9800;DHT22;4939;52.00085300;4.17406100;2023-01-15T05:49:02;7.60;99.90
9800;DHT22;4939;52.00085300;4.17406100;2023-01-15T05:51:28;7.50;99.90
9800;DHT22;4939;52.00085300;4.17406100;2023-01-15T05:53:57;7.50;99.90
9800;DHT22;4939;52.00085300;4.17406100;2023-01-15T05:56:23;7.60;99.90
9800;DHT22;4939;52.00085300;4.17406100;2023-01-15T05:58:49;7.60;99.90
9800;DHT22;4939;52.00085300;4.17406100;2023-01-15T06:01:15;7.60;99.90
9800;DHT22;4939;52.00085300;4.17406100;2023-01-15T06:03:41;7.60;99.90
9800;DHT22;4939;52.00085300;4.17406100;2023-01-15T06:06:12;7.70;99.90
9800;DHT22;4939;52.00085300;4.17406100;2023-01-15T06:08:38;7.70;99.90
9800;DHT22;4939;52.00085300;4.17406100;2023-01-15T06:11:04;7.70;99.90
9800;DHT22;4939;52.00085300;4.17406100;2023-01-15T06:13:31;7.60;99.90
9800;DHT22;4939;52.00085300;4.17406100;2023-01-15T06:15:59;7.60;99.90
9800;DHT22;4939;52.00085300;4.17406100;2023-01-15T06:18:26;7.60;99.90
9800;DHT22;4939;52.00085300;4.17406100;2023-01-15T06:20:52;7.60;99.90
9800;DHT22;4939;52.00085300;4.17406100;2023-01-15T06:23:18;7.60;99.90
9800;DHT22;4939;52.00085300;4.17406100;2023-01-15T06:25:44;7.60;99.90
9800;DHT22;4939;52.00085300;4.17406100;2023-01-15T06:28:10;7.60;99.90
9800;DHT22;4939;52.00085300;4.17406100;2023-01-15T06:30:38;7.60;99.90
9800;DHT22;4939;52.00085300;4.17406100;2023-01-15T06:33:05;7.60;99.90
9800;DHT22;4939;52.00085300;4.17406100;2023-01-15T06:35:32;7.60;99.90
9800;DHT22;4939;52.00085300;4.17406100;2023-01-15T06:37:58;7.60;99.90
9800;DHT22;4939;52.00085300;4.17406100;2023-01-15T06:40:23;7.60;99.90
9800;DHT22;4939;52.00085300;4.17406100;2023-01-15T06:42:51;7.60;99.90
9800;DHT22;4939;52.00085300;4.17406100;2023-01-15T06:45:37;7.60;99.90
9800;DHT22;4939;52.00085300;4.17406100;2023-01-15T06:48:23;7.50;99.90
9800;DHT22;4939;52.00085300;4.17406100;2023-01-15T06:50:49;7.50;99.90
9800;DHT22;4939;52.00085300;4.17406100;2023-01-15T06:53:15;7.90;99.90
9800;DHT22;4939;52.00085300;4.17406100;2023-01-15T06:55:41;7.50;99.90
9800;DHT22;4939;52.00085300;4.17406100;2023-01-15T06:58:07;7.50;99.90
9800;DHT22;4939;52.00085300;4.17406100;2023-01-15T07:00:33;7.60;99.90
9800;DHT22;4939;52.00085300;4.17406100;2023-01-15T07:02:59;7.60;99.90
9800;DHT22;4939;52.00085300;4.17406100;2023-01-15T07:05:25;7.60;99.90
9800;DHT22;4939;52.00085300;4.17406100;2023-01-15T07:07:52;7.70;99.90
9800;DHT22;4939;52.00085300;4.17406100;2023-01-15T07:10:17;7.70;99.90
9800;DHT22;4939;52.00085300;4.17406100;2023-01-15T07:12:43;7.70;99.90
9800;DHT22;4939;52.00085300;4.17406100;2023-01-15T07:15:09;7.70;99.90
9800;DHT22;4939;52.00085300;4.17406100;2023-01-15T07:17:35;7.70;99.90
9800;DHT22;4939;52.00085300;4.17406100;2023-01-15T07:20:01;7.70;99.90
9800;DHT22;4939;52.00085300;4.17406100;2023-01-15T07:22:27;7.70;99.90
9800;DHT22;4939;52.00085300;4.17406100;2023-01-15T07:24:53;7.70;99.90
9800;DHT22;4939;52.00085300;4.17406100;2023-01-15T07:27:19;7.80;99.90
9800;DHT22;4939;52.00085300;4.17406100;2023-01-15T07:29:45;7.70;99.90
9800;DHT22;4939;52.00085300;4.17406100;2023-01-15T07:32:11;7.70;99.90
9800;DHT22;4939;52.00085300;4.17406100;2023-01-15T07:34:37;7.70;99.90
9800;DHT22;4939;52.00085300;4.17406100;2023-01-15T07:37:04;7.70;99.90
9800;DHT22;4939;52.00085300;4.17406100;2023-01-15T07:39:30;7.80;99.90
9800;DHT22;4939;52.00085300;4.17406100;2023-01-15T07:41:56;7.80;99.90
9800;DHT22;4939;52.00085300;4.17406100;2023-01-15T07:44:41;7.80;99.90
9800;DHT22;4939;52.00085300;4.17406100;2023-01-15T07:47:26;7.80;99.90
9800;DHT22;4939;52.00085300;4.17406100;2023-01-15T07:50:17;7.80;99.90
9800;DHT22;4939;52.00085300;4.17406100;2023-01-15T07:52:43;7.90;99.90
9800;DHT22;4939;52.00085300;4.17406100;2023-01-15T07:55:09;7.90;99.90
9800;DHT22;4939;52.00085300;4.17406100;2023-01-15T07:57:37;7.90;99.90
9800;DHT22;4939;52.00085300;4.17406100;2023-01-15T08:00:06;7.90;99.90
9800;DHT22;4939;52.00085300;4.17406100;2023-01-15T08:02:32;7.90;99.90
9800;DHT22;4939;52.00085300;4.17406100;2023-01-15T08:04:58;7.90;99.90
9800;DHT22;4939;52.00085300;4.17406100;2023-01-15T08:07:23;7.90;99.90
9800;DHT22;4939;52.00085300;4.17406100;2023-01-15T08:09:49;7.90;99.90
9800;DHT22;4939;52.00085300;4.17406100;2023-01-15T08:12:15;7.90;99.90
9800;DHT22;4939;52.00085300;4.17406100;2023-01-15T08:14:59;7.90;99.90
9800;DHT22;4939;52.00085300;4.17406100;2023-01-15T08:17:46;7.90;99.90
9800;DHT22;4939;52.00085300;4.17406100;2023-01-15T08:20:15;7.80;99.90
9800;DHT22;4939;52.00085300;4.17406100;2023-01-15T08:22:41;7.80;99.90
9800;DHT22;4939;52.00085300;4.17406100;2023-01-15T08:25:08;7.80;99.90
9800;DHT22;4939;52.00085300;4.17406100;2023-01-15T08:27:35;7.70;99.90
9800;DHT22;4939;52.00085300;4.17406100;2023-01-15T08:30:03;7.70;99.90
9800;DHT22;4939;52.00085300;4.17406100;2023-01-15T08:32:29;7.70;99.90
9800;DHT22;4939;52.00085300;4.17406100;2023-01-15T08:34:55;7.70;99.90
9800;DHT22;4939;52.00085300;4.17406100;2023-01-15T08:37:20;7.70;99.90
9800;DHT22;4939;52.00085300;4.17406100;2023-01-15T08:39:46;7.70;99.90
9800;DHT22;4939;52.00085300;4.17406100;2023-01-15T08:42:12;7.70;99.90
9800;DHT22;4939;52.00085300;4.17406100;2023-01-15T08:44:38;7.70;99.90
9800;DHT22;4939;52.00085300;4.17406100;2023-01-15T08:47:03;7.70;99.90
9800;DHT22;4939;52.00085300;4.17406100;2023-01-15T08:49:29;7.90;99.90
9800;DHT22;4939;52.00085300;4.17406100;2023-01-15T08:51:55;7.70;99.90
9800;DHT22;4939;52.00085300;4.17406100;2023-01-15T08:54:21;7.70;99.90
9800;DHT22;4939;52.00085300;4.17406100;2023-01-15T08:56:49;7.80;99.90
9800;DHT22;4939;52.00085300;4.17406100;2023-01-15T08:59:17;7.90;99.90
9800;DHT22;4939;52.00085300;4.17406100;2023-01-15T09:01:42;7.80;99.90
9800;DHT22;4939;52.00085300;4.17406100;2023-01-15T09:04:17;7.90;99.90
9800;DHT22;4939;52.00085300;4.17406100;2023-01-15T09:06:44;7.80;99.90
9800;DHT22;4939;52.00085300;4.17406100;2023-01-15T09:09:11;7.80;99.90
9800;DHT22;4939;52.00085300;4.17406100;2023-01-15T09:11:37;7.80;99.90
9800;DHT22;4939;52.00085300;4.17406100;2023-01-15T09:14:11;7.90;99.90
9800;DHT22;4939;52.00085300;4.17406100;2023-01-15T09:16:37;7.90;99.90
9800;DHT22;4939;52.00085300;4.17406100;2023-01-15T09:19:05;8.00;99.90
9800;DHT22;4939;52.00085300;4.17406100;2023-01-15T09:21:31;8.00;99.90
9800;DHT22;4939;52.00085300;4.17406100;2023-01-15T09:23:57;8.10;99.90
9800;DHT22;4939;52.00085300;4.17406100;2023-01-15T09:26:31;8.10;99.90
9800;DHT22;4939;52.00085300;4.17406100;2023-01-15T09:28:59;8.20;99.90
9800;DHT22;4939;52.00085300;4.17406100;2023-01-15T09:31:25;8.20;99.90
9800;DHT22;4939;52.00085300;4.17406100;2023-01-15T09:33:50;8.30;99.90
9800;DHT22;4939;52.00085300;4.17406100;2023-01-15T09:36:19;8.30;99.90
9800;DHT22;4939;52.00085300;4.17406100;2023-01-15T09:38:48;8.40;99.90
9800;DHT22;4939;52.00085300;4.17406100;2023-01-15T09:41:16;8.40;99.90
9800;DHT22;4939;52.00085300;4.17406100;2023-01-15T09:44:21;8.40;99.90
9800;DHT22;4939;52.00085300;4.17406100;2023-01-15T09:47:03;8.40;99.90
9800;DHT22;4939;52.00085300;4.17406100;2023-01-15T09:50:05;8.40;99.90
9800;DHT22;4939;52.00085300;4.17406100;2023-01-15T09:55:26;8.40;99.90
9800;DHT22;4939;52.00085300;4.17406100;2023-01-15T09:57:59;8.40;99.90
9800;DHT22;4939;52.00085300;4.17406100;2023-01-15T10:00:32;8.50;99.90
9800;DHT22;4939;52.00085300;4.17406100;2023-01-15T10:03:24;8.50;99.90
9800;DHT22;4939;52.00085300;4.17406100;2023-01-15T10:06:14;8.50;99.90
9800;DHT22;4939;52.00085300;4.17406100;2023-01-15T10:08:45;8.50;99.90
9800;DHT22;4939;52.00085300;4.17406100;2023-01-15T10:16:32;8.50;99.90
9800;DHT22;4939;52.00085300;4.17406100;2023-01-15T10:19:01;8.60;99.90
9800;DHT22;4939;52.00085300;4.17406100;2023-01-15T10:24:17;8.50;99.90
9800;DHT22;4939;52.00085300;4.17406100;2023-01-15T10:26:53;8.50;99.90
9800;DHT22;4939;52.00085300;4.17406100;2023-01-15T10:29:44;8.50;99.90
9800;DHT22;4939;52.00085300;4.17406100;2023-01-15T10:32:26;8.50;99.90
9800;DHT22;4939;52.00085300;4.17406100;2023-01-15T10:35:18;8.50;99.90
9800;DHT22;4939;52.00085300;4.17406100;2023-01-15T10:40:45;8.60;99.90
9800;DHT22;4939;52.00085300;4.17406100;2023-01-15T10:46:25;8.60;99.90
9800;DHT22;4939;52.00085300;4.17406100;2023-01-15T10:48:58;8.60;99.90
9800;DHT22;4939;52.00085300;4.17406100;2023-01-15T10:51:41;8.60;99.90
9800;DHT22;4939;52.00085300;4.17406100;2023-01-15T11:01:54;8.90;99.90
9800;DHT22;4939;52.00085300;4.17406100;2023-01-15T11:04:25;8.80;99.90
9800;DHT22;4939;52.00085300;4.17406100;2023-01-15T11:06:53;8.90;99.90
9800;DHT22;4939;52.00085300;4.17406100;2023-01-15T11:09:22;9.00;99.90
9800;DHT22;4939;52.00085300;4.17406100;2023-01-15T11:11:55;9.00;99.90
9800;DHT22;4939;52.00085300;4.17406100;2023-01-15T11:14:38;9.00;99.90
9800;DHT22;4939;52.00085300;4.17406100;2023-01-15T11:17:26;9.00;99.90
9800;DHT22;4939;52.00085300;4.17406100;2023-01-15T11:22:55;8.90;99.90
9800;DHT22;4939;52.00085300;4.17406100;2023-01-15T11:25:30;8.80;99.90
9800;DHT22;4939;52.00085300;4.17406100;2023-01-15T11:27:58;8.70;99.90
9800;DHT22;4939;52.00085300;4.17406100;2023-01-15T11:30:36;8.70;99.90
9800;DHT22;4939;52.00085300;4.17406100;2023-01-15T11:33:03;8.70;99.90
9800;DHT22;4939;52.00085300;4.17406100;2023-01-15T11:35:31;8.80;99.90
9800;DHT22;4939;52.00085300;4.17406100;2023-01-15T11:38:19;8.80;99.90
9800;DHT22;4939;52.00085300;4.17406100;2023-01-15T11:40:58;8.70;99.90
9800;DHT22;4939;52.00085300;4.17406100;2023-01-15T11:43:29;8.70;99.90
9800;DHT22;4939;52.00085300;4.17406100;2023-01-15T11:46:29;8.70;99.90
9800;DHT22;4939;52.00085300;4.17406100;2023-01-15T11:49:20;8.70;99.90
9800;DHT22;4939;52.00085300;4.17406100;2023-01-15T11:52:14;8.70;99.90
9800;DHT22;4939;52.00085300;4.17406100;2023-01-15T11:54:45;8.70;99.90
9800;DHT22;4939;52.00085300;4.17406100;2023-01-15T11:57:28;8.70;99.90
9800;DHT22;4939;52.00085300;4.17406100;2023-01-15T11:59:56;8.70;99.90
9800;DHT22;4939;52.00085300;4.17406100;2023-01-15T12:02:30;8.70;99.90
9800;DHT22;4939;52.00085300;4.17406100;2023-01-15T12:05:00;8.70;99.90
9800;DHT22;4939;52.00085300;4.17406100;2023-01-15T12:07:29;8.60;99.90
9800;DHT22;4939;52.00085300;4.17406100;2023-01-15T12:10:21;8.60;99.90
9800;DHT22;4939;52.00085300;4.17406100;2023-01-15T12:18:58;8.70;99.90
9800;DHT22;4939;52.00085300;4.17406100;2023-01-15T12:29:20;8.70;99.90
9800;DHT22;4939;52.00085300;4.17406100;2023-01-15T12:32:02;8.70;99.90
9800;DHT22;4939;52.00085300;4.17406100;2023-01-15T12:37:19;8.80;99.90
9800;DHT22;4939;52.00085300;4.17406100;2023-01-15T12:39:53;8.80;99.90
9800;DHT22;4939;52.00085300;4.17406100;2023-01-15T12:42:22;8.80;99.90
9800;DHT22;4939;52.00085300;4.17406100;2023-01-15T12:45:19;8.90;99.90
9800;DHT22;4939;52.00085300;4.17406100;2023-01-15T12:48:11;8.90;99.90
9800;DHT22;4939;52.00085300;4.17406100;2023-01-15T12:50:46;8.90;99.90
9800;DHT22;4939;52.00085300;4.17406100;2023-01-15T12:53:18;9.00;99.90
9800;DHT22;4939;52.00085300;4.17406100;2023-01-15T12:55:56;8.90;99.90
9800;DHT22;4939;52.00085300;4.17406100;2023-01-15T13:01:18;8.90;99.90
9800;DHT22;4939;52.00085300;4.17406100;2023-01-15T13:03:52;8.80;99.90
9800;DHT22;4939;52.00085300;4.17406100;2023-01-15T13:06:23;8.90;99.90
9800;DHT22;4939;52.00085300;4.17406100;2023-01-15T13:09:04;8.90;99.90
9800;DHT22;4939;52.00085300;4.17406100;2023-01-15T13:11:31;8.90;99.90
9800;DHT22;4939;52.00085300;4.17406100;2023-01-15T13:13:57;9.00;99.90
9800;DHT22;4939;52.00085300;4.17406100;2023-01-15T13:19:27;9.10;99.90
9800;DHT22;4939;52.00085300;4.17406100;2023-01-15T13:21:58;9.30;99.90
9800;DHT22;4939;52.00085300;4.17406100;2023-01-15T13:33:33;9.30;99.90
9800;DHT22;4939;52.00085300;4.17406100;2023-01-15T13:35:32;9.30;99.90
9800;DHT22;4939;52.00085300;4.17406100;2023-01-15T13:38:02;9.40;99.90
9800;DHT22;4939;52.00085300;4.17406100;2023-01-15T13:40:40;9.40;99.90
9800;DHT22;4939;52.00085300;4.17406100;2023-01-15T13:43:07;9.30;99.90
9800;DHT22;4939;52.00085300;4.17406100;2023-01-15T13:45:47;9.40;99.90
9800;DHT22;4939;52.00085300;4.17406100;2023-01-15T13:48:17;9.30;99.90
9800;DHT22;4939;52.00085300;4.17406100;2023-01-15T13:51:05;9.20;99.90
9800;DHT22;4939;52.00085300;4.17406100;2023-01-15T13:53:33;9.10;99.90
9800;DHT22;4939;52.00085300;4.17406100;2023-01-15T13:56:07;9.10;99.90
9800;DHT22;4939;52.00085300;4.17406100;2023-01-15T13:58:39;9.10;99.90
9800;DHT22;4939;52.00085300;4.17406100;2023-01-15T14:03:34;9.00;99.90
9800;DHT22;4939;52.00085300;4.17406100;2023-01-15T14:06:07;9.00;99.90
9800;DHT22;4939;52.00085300;4.17406100;2023-01-15T14:08:44;8.90;99.90
9800;DHT22;4939;52.00085300;4.17406100;2023-01-15T14:19:29;8.90;99.90
9800;DHT22;4939;52.00085300;4.17406100;2023-01-15T14:25:11;9.00;99.90
9800;DHT22;4939;52.00085300;4.17406100;2023-01-15T14:36:24;9.00;99.90
9800;DHT22;4939;52.00085300;4.17406100;2023-01-15T14:38:55;9.00;99.90
9800;DHT22;4939;52.00085300;4.17406100;2023-01-15T14:41:26;9.00;99.90
9800;DHT22;4939;52.00085300;4.17406100;2023-01-15T14:43:53;9.00;99.90
9800;DHT22;4939;52.00085300;4.17406100;2023-01-15T14:46:32;8.90;99.90
9800;DHT22;4939;52.00085300;4.17406100;2023-01-15T14:49:00;8.90;99.90
9800;DHT22;4939;52.00085300;4.17406100;2023-01-15T14:51:30;8.90;99.90
9800;DHT22;4939;52.00085300;4.17406100;2023-01-15T14:54:00;8.90;99.90
9800;DHT22;4939;52.00085300;4.17406100;2023-01-15T14:56:51;8.90;99.90
9800;DHT22;4939;52.00085300;4.17406100;2023-01-15T14:59:41;9.00;99.90
9800;DHT22;4939;52.00085300;4.17406100;2023-01-15T15:02:21;8.90;99.90
9800;DHT22;4939;52.00085300;4.17406100;2023-01-15T15:04:52;8.80;99.90
9800;DHT22;4939;52.00085300;4.17406100;2023-01-15T15:07:23;8.80;99.90
9800;DHT22;4939;52.00085300;4.17406100;2023-01-15T15:10:03;8.80;99.90
9800;DHT22;4939;52.00085300;4.17406100;2023-01-15T15:21:17;8.80;99.90
9800;DHT22;4939;52.00085300;4.17406100;2023-01-15T15:24:33;8.80;99.90
9800;DHT22;4939;52.00085300;4.17406100;2023-01-15T15:26:35;8.80;99.90
9800;DHT22;4939;52.00085300;4.17406100;2023-01-15T15:31:45;8.80;99.90
9800;DHT22;4939;52.00085300;4.17406100;2023-01-15T15:36:53;8.80;99.90
9800;DHT22;4939;52.00085300;4.17406100;2023-01-15T15:39:39;8.80;99.90
9800;DHT22;4939;52.00085300;4.17406100;2023-01-15T15:42:29;8.80;99.90
9800;DHT22;4939;52.00085300;4.17406100;2023-01-15T15:48:31;8.70;99.90
9800;DHT22;4939;52.00085300;4.17406100;2023-01-15T15:51:32;8.70;99.90
9800;DHT22;4939;52.00085300;4.17406100;2023-01-15T15:54:27;8.70;99.90
9800;DHT22;4939;52.00085300;4.17406100;2023-01-15T15:57:10;8.70;99.90
9800;DHT22;4939;52.00085300;4.17406100;2023-01-15T15:59:44;8.70;99.90
9800;DHT22;4939;52.00085300;4.17406100;2023-01-15T16:04:49;8.80;99.90
9800;DHT22;4939;52.00085300;4.17406100;2023-01-15T16:07:28;8.80;99.90
9800;DHT22;4939;52.00085300;4.17406100;2023-01-15T16:10:23;8.70;99.90
9800;DHT22;4939;52.00085300;4.17406100;2023-01-15T16:12:52;8.70;99.90
9800;DHT22;4939;52.00085300;4.17406100;2023-01-15T16:15:26;8.70;99.90
9800;DHT22;4939;52.00085300;4.17406100;2023-01-15T16:17:55;8.60;99.90
9800;DHT22;4939;52.00085300;4.17406100;2023-01-15T16:20:21;8.50;99.90
9800;DHT22;4939;52.00085300;4.17406100;2023-01-15T16:23:02;8.30;99.90
9800;DHT22;4939;52.00085300;4.17406100;2023-01-15T16:25:40;8.10;99.90
9800;DHT22;4939;52.00085300;4.17406100;2023-01-15T16:28:22;7.90;99.90
9800;DHT22;4939;52.00085300;4.17406100;2023-01-15T16:30:57;7.80;99.90
9800;DHT22;4939;52.00085300;4.17406100;2023-01-15T16:33:23;7.70;99.90
9800;DHT22;4939;52.00085300;4.17406100;2023-01-15T16:35:57;7.60;99.90